createdAt,value
2018-09-08T00:01:02.544Z,101292.41
2018-09-08T00:03:30.786Z,101295.44
2018-09-08T00:05:59.018Z,101295.08
2018-09-08T00:08:27.226Z,101304.16
2018-09-08T00:10:55.459Z,101296.76
2018-09-08T00:13:23.657Z,101293.34
2018-09-08T00:15:57.257Z,101305.91
2018-09-08T00:18:30.783Z,101306.81
2018-09-08T00:21:04.312Z,101304.19
2018-09-08T00:23:37.754Z,101301.15
2018-09-08T00:26:11.306Z,101302.89
2018-09-08T00:28:45.906Z,101303.31
2018-09-08T00:31:16.790Z,101305.92
2018-09-08T00:33:45.230Z,101303.75
2018-09-08T00:36:13.478Z,101301.13
2018-09-08T00:38:41.746Z,101301.54
2018-09-08T00:41:09.980Z,101299.81
2018-09-08T00:43:38.401Z,101309.30
2018-09-08T00:46:07.086Z,101302.84
2018-09-08T00:48:35.286Z,101302.39
2018-09-08T00:51:03.519Z,101311.95
2018-09-08T00:53:31.728Z,101310.65
2018-09-08T00:55:59.969Z,101311.98
2018-09-08T00:58:28.302Z,101313.66
2018-09-08T01:00:56.649Z,101318.02
2018-09-08T01:03:24.859Z,101317.09
2018-09-08T01:05:53.398Z,101310.20
2018-09-08T01:08:21.635Z,101301.40
2018-09-08T01:10:49.869Z,101314.89
2018-09-08T01:13:18.097Z,101307.05
2018-09-08T01:15:46.305Z,101302.28
2018-09-08T01:18:14.534Z,101306.66
2018-09-08T01:20:42.773Z,101307.05
2018-09-08T01:23:10.987Z,101309.18
2018-09-08T01:25:39.518Z,101309.67
2018-09-08T01:28:07.744Z,101309.66
2018-09-08T01:30:35.966Z,101311.89
2018-09-08T01:33:04.383Z,101309.73
2018-09-08T01:35:32.594Z,101314.95
2018-09-08T01:38:00.808Z,101313.59
2018-09-08T01:40:29.136Z,101320.55
2018-09-08T01:42:57.410Z,101322.32
2018-09-08T01:45:25.688Z,101325.48
2018-09-08T01:47:53.923Z,101318.02
2018-09-08T01:50:22.182Z,101316.73
2018-09-08T01:52:50.414Z,101320.22
2018-09-08T01:55:18.726Z,101325.42
2018-09-08T01:57:46.966Z,101324.98
2018-09-08T02:00:17.266Z,101328.47
2018-09-08T02:02:45.526Z,101331.53
2018-09-08T02:05:13.806Z,101331.08
2018-09-08T02:07:42.060Z,101333.26
2018-09-08T02:10:10.281Z,101333.61
2018-09-08T02:12:38.565Z,101330.18
2018-09-08T02:15:06.790Z,101324.52
2018-09-08T02:17:35.015Z,101326.34
2018-09-08T02:20:03.275Z,101320.25
2018-09-08T02:22:31.508Z,101315.37
2018-09-08T02:24:59.779Z,101316.31
2018-09-08T02:27:28.006Z,101320.68
2018-09-08T02:29:56.343Z,101324.14
2018-09-08T02:32:24.569Z,101323.25
2018-09-08T02:34:52.803Z,101321.52
2018-09-08T02:37:21.104Z,101328.06
2018-09-08T02:39:49.408Z,101324.94
2018-09-08T02:42:17.631Z,101328.09
2018-09-08T02:44:45.858Z,101337.22
2018-09-08T02:47:14.083Z,101334.14
2018-09-08T02:49:53.591Z,101335.02
2018-09-08T02:52:20.689Z,101333.70
2018-09-08T02:54:47.815Z,101328.45
2018-09-08T02:57:14.958Z,101326.25
2018-09-08T02:59:42.123Z,101330.23
2018-09-08T03:02:09.257Z,101332.86
2018-09-08T03:04:36.382Z,101332.81
2018-09-08T03:07:07.654Z,101340.64
2018-09-08T03:09:35.039Z,101337.16
2018-09-08T03:12:02.163Z,101344.55
2018-09-08T03:14:29.309Z,101349.38
2018-09-08T03:16:56.438Z,101352.36
2018-09-08T03:19:23.562Z,101346.27
2018-09-08T03:21:50.707Z,101356.72
2018-09-08T03:24:17.825Z,101358.94
2018-09-08T03:26:44.973Z,101360.64
2018-09-08T03:29:12.094Z,101358.06
2018-09-08T03:31:39.230Z,101360.64
2018-09-08T03:34:06.365Z,101375.66
2018-09-08T03:36:33.497Z,101369.70
2018-09-08T03:39:00.637Z,101366.66
2018-09-08T03:41:27.762Z,101366.70
2018-09-08T03:43:54.894Z,101370.59
2018-09-08T03:46:22.025Z,101374.08
2018-09-08T03:48:49.141Z,101372.67
2018-09-08T03:51:16.282Z,101374.74
2018-09-08T03:53:43.423Z,101365.29
2018-09-08T03:56:10.533Z,101367.12
2018-09-08T03:58:37.674Z,101363.17
2018-09-08T04:01:04.786Z,101371.47
2018-09-08T04:03:33.020Z,101381.00
2018-09-08T04:06:01.275Z,101383.19
2018-09-08T04:08:29.506Z,101380.61
2018-09-08T04:10:57.754Z,101388.31
2018-09-08T04:13:25.974Z,101383.89
2018-09-08T04:15:54.215Z,101379.67
2018-09-08T04:18:22.440Z,101376.75
2018-09-08T04:20:50.671Z,101379.28
2018-09-08T04:23:18.922Z,101384.12
2018-09-08T04:25:47.155Z,101381.89
2018-09-08T04:28:15.398Z,101393.14
2018-09-08T04:30:43.622Z,101391.00
2018-09-08T04:33:11.849Z,101393.53
2018-09-08T04:35:40.095Z,101405.23
2018-09-08T04:38:08.335Z,101399.61
2018-09-08T04:40:36.623Z,101389.70
2018-09-08T04:43:04.865Z,101401.27
2018-09-08T04:45:33.080Z,101403.06
2018-09-08T04:48:01.298Z,101405.53
2018-09-08T04:50:29.544Z,101402.16
2018-09-08T04:52:57.802Z,101397.78
2018-09-08T04:55:26.027Z,101407.28
2018-09-08T04:57:54.288Z,101406.78
2018-09-08T05:00:22.543Z,101407.19
2018-09-08T05:02:50.767Z,101409.25
2018-09-08T05:05:19.014Z,101401.14
2018-09-08T05:07:47.603Z,101403.80
2018-09-08T05:10:15.818Z,101405.30
2018-09-08T05:12:44.047Z,101409.41
2018-09-08T05:15:12.275Z,101409.55
2018-09-08T05:17:40.510Z,101410.88
2018-09-08T05:20:09.145Z,101413.05
2018-09-08T05:22:37.530Z,101419.02
2018-09-08T05:25:05.779Z,101417.84
2018-09-08T05:27:34.315Z,101415.20
2018-09-08T05:30:02.838Z,101418.68
2018-09-08T05:32:31.099Z,101425.73
2018-09-08T05:34:59.387Z,101425.73
2018-09-08T05:37:27.573Z,101431.20
2018-09-08T05:39:55.799Z,101438.83
2018-09-08T05:42:27.418Z,101444.21
2018-09-08T05:44:55.637Z,101437.67
2018-09-08T05:47:23.861Z,101434.36
2018-09-08T05:49:52.108Z,101439.80
2018-09-08T05:52:20.338Z,101438.23
2018-09-08T05:54:48.581Z,101440.73
2018-09-08T05:57:16.834Z,101442.84
2018-09-08T05:59:45.071Z,101442.08
2018-09-08T06:02:13.328Z,101445.33
2018-09-08T06:04:41.547Z,101453.06
2018-09-08T06:07:09.807Z,101450.41
2018-09-08T06:09:38.048Z,101440.00
2018-09-08T06:12:06.274Z,101446.44
2018-09-08T06:14:34.506Z,101438.23
2018-09-08T06:17:02.749Z,101439.88
2018-09-08T06:19:30.975Z,101451.30
2018-09-08T06:21:59.221Z,101452.03
2018-09-08T06:24:27.524Z,101452.50
2018-09-08T06:26:55.722Z,101447.11
2018-09-08T06:29:23.992Z,101447.66
2018-09-08T06:31:52.329Z,101451.13
2018-09-08T06:34:20.493Z,101449.94
2018-09-08T06:36:48.703Z,101443.69
2018-09-08T06:39:17.033Z,101446.94
2018-09-08T06:41:45.239Z,101456.18
2018-09-08T06:44:13.503Z,101454.71
2018-09-08T06:46:46.785Z,101454.92
2018-09-08T06:49:15.030Z,101451.28
2018-09-08T06:51:45.187Z,101453.84
2018-09-08T06:54:13.431Z,101456.02
2018-09-08T06:56:41.682Z,101452.27
2018-09-08T06:59:09.925Z,101454.41
2018-09-08T07:01:40.250Z,101457.15
2018-09-08T07:04:08.478Z,101464.13
2018-09-08T07:06:36.801Z,101456.23
2018-09-08T07:09:07.786Z,101457.58
2018-09-08T07:11:36.047Z,101443.58
2018-09-08T07:14:04.297Z,101447.09
2018-09-08T07:16:32.534Z,101446.20
2018-09-08T07:19:00.828Z,101448.66
2018-09-08T07:21:29.081Z,101438.19
2018-09-08T07:23:57.306Z,101434.38
2018-09-08T07:26:25.553Z,101433.25
2018-09-08T07:28:53.781Z,101434.75
2018-09-08T07:31:22.014Z,101437.34
2018-09-08T07:33:50.266Z,101427.56
2018-09-08T07:36:18.511Z,101428.37
2018-09-08T07:38:46.758Z,101428.30
2018-09-08T07:41:14.998Z,101430.67
2018-09-08T07:43:44.294Z,101430.82
2018-09-08T07:46:12.572Z,101431.69
2018-09-08T07:48:41.027Z,101436.35
2018-09-08T07:51:10.323Z,101430.00
2018-09-08T07:53:38.678Z,101423.80
2018-09-08T07:56:09.126Z,101432.98
2018-09-08T07:58:37.446Z,101424.73
2018-09-08T08:01:05.684Z,101439.61
2018-09-08T08:03:34.006Z,101438.50
2018-09-08T08:06:05.948Z,101435.88
2018-09-08T08:08:35.299Z,101429.05
2018-09-08T08:11:03.583Z,101429.64
2018-09-08T08:13:31.847Z,101427.71
2018-09-08T08:16:00.154Z,101423.84
2018-09-08T08:18:28.427Z,101423.11
2018-09-08T08:20:56.731Z,101431.95
2018-09-08T08:23:25.019Z,101425.17
2018-09-08T08:25:53.299Z,101425.11
2018-09-08T08:28:21.600Z,101436.20
2018-09-08T08:30:49.866Z,101431.17
2018-09-08T08:33:19.205Z,101431.88
2018-09-08T08:35:47.506Z,101430.89
2018-09-08T08:38:15.739Z,101425.62
2018-09-08T08:40:43.967Z,101423.21
2018-09-08T08:43:12.305Z,101418.75
2018-09-08T08:45:41.594Z,101416.91
2018-09-08T08:48:09.794Z,101409.23
2018-09-08T08:51:47.883Z,101407.11
2018-09-08T08:54:21.790Z,101411.12
2018-09-08T08:56:50.038Z,101409.59
2018-09-08T08:59:18.271Z,101404.56
2018-09-08T09:01:46.518Z,101411.67
2018-09-08T09:04:14.745Z,101412.59
2018-09-08T09:06:43.010Z,101415.92
2018-09-08T09:09:13.240Z,101415.15
2018-09-08T09:11:41.479Z,101417.36
2018-09-08T09:14:09.902Z,101412.58
2018-09-08T09:16:38.177Z,101410.16
2018-09-08T09:19:34.794Z,101403.70
2018-09-08T09:22:15.642Z,101396.47
2018-09-08T09:24:55.760Z,101396.89
2018-09-08T09:27:24.612Z,101405.31
2018-09-08T09:29:53.087Z,101405.29
2018-09-08T09:32:21.427Z,101404.88
2018-09-08T09:34:49.767Z,101399.98
2018-09-08T09:37:18.037Z,101391.09
2018-09-08T09:39:47.687Z,101400.95
2018-09-08T09:42:15.939Z,101397.46
2018-09-08T09:44:44.255Z,101392.52
2018-09-08T09:47:14.544Z,101386.91
2018-09-08T09:49:42.754Z,101389.52
2018-09-08T09:52:11.036Z,101399.17
2018-09-08T09:54:39.298Z,101392.61
2018-09-08T09:57:08.696Z,101391.30
2018-09-08T09:59:37.033Z,101387.83
2018-09-08T10:02:11.604Z,101388.02
2018-09-08T10:04:39.804Z,101382.09
2018-09-08T10:07:09.501Z,101384.60
2018-09-08T10:09:39.096Z,101378.07
2018-09-08T10:12:07.407Z,101384.54
2018-09-08T10:14:35.610Z,101377.52
2018-09-08T10:17:03.826Z,101391.07
2018-09-08T10:19:32.071Z,101383.97
2018-09-08T10:22:00.333Z,101390.86
2018-09-08T10:24:28.565Z,101387.16
2018-09-08T10:26:56.815Z,101391.81
2018-09-08T10:29:25.058Z,101391.39
2018-09-08T10:31:53.286Z,101380.86
2018-09-08T10:34:21.529Z,101388.75
2018-09-08T10:36:49.753Z,101379.70
2018-09-08T10:39:18.019Z,101372.49
2018-09-08T10:41:46.241Z,101371.83
2018-09-08T10:44:14.498Z,101370.92
2018-09-08T10:46:42.759Z,101370.76
2018-09-08T10:49:10.999Z,101381.59
2018-09-08T10:51:48.643Z,101372.93
2018-09-08T10:54:17.138Z,101366.70
2018-09-08T10:56:45.363Z,101371.13
2018-09-08T10:59:13.639Z,101371.45
2018-09-08T11:01:41.939Z,101364.28
2018-09-08T11:04:10.115Z,101359.52
2018-09-08T11:06:38.384Z,101361.54
2018-09-08T11:09:06.975Z,101364.32
2018-09-08T11:11:35.333Z,101360.25
2018-09-08T11:14:03.574Z,101364.63
2018-09-08T11:16:31.805Z,101363.83
2018-09-08T11:19:00.369Z,101360.00
2018-09-08T11:21:28.622Z,101360.64
2018-09-08T11:23:56.858Z,101360.08
2018-09-08T11:26:25.106Z,101359.45
2018-09-08T11:28:55.409Z,101355.80
2018-09-08T11:31:23.630Z,101359.89
2018-09-08T11:33:51.867Z,101358.09
2018-09-08T11:36:20.118Z,101353.41
2018-09-08T11:38:48.375Z,101356.69
2018-09-08T11:41:16.602Z,101339.22
2018-09-08T11:43:44.840Z,101346.28
2018-09-08T11:46:13.074Z,101341.03
2018-09-08T11:48:41.305Z,101348.77
2018-09-08T11:51:09.550Z,101343.34
2018-09-08T11:53:37.823Z,101341.48
2018-09-08T11:56:06.123Z,101346.02
2018-09-08T11:58:34.358Z,101346.66
2018-09-08T12:01:02.606Z,101348.58
2018-09-08T12:03:30.833Z,101345.37
2018-09-08T12:05:59.062Z,101348.16
2018-09-08T12:08:27.288Z,101345.09
2018-09-08T12:10:55.579Z,101349.72
2018-09-08T12:13:23.797Z,101338.84
2018-09-08T12:15:52.010Z,101334.53
2018-09-08T12:18:20.255Z,101329.08
2018-09-08T12:20:48.505Z,101330.61
2018-09-08T12:23:16.761Z,101322.27
2018-09-08T12:25:45.003Z,101317.59
2018-09-08T12:28:13.295Z,101324.79
2018-09-08T12:30:41.616Z,101329.40
2018-09-08T12:33:09.800Z,101327.47
2018-09-08T12:35:38.100Z,101322.86
2018-09-08T12:38:06.342Z,101323.62
2018-09-08T12:40:34.568Z,101319.77
2018-09-08T12:43:02.814Z,101315.38
2018-09-08T12:45:31.043Z,101318.81
2018-09-08T12:47:59.274Z,101316.41
2018-09-08T12:50:27.501Z,101312.73
2018-09-08T12:52:55.742Z,101309.39
2018-09-08T12:55:24.011Z,101307.41
2018-09-08T12:57:52.223Z,101307.94
2018-09-08T13:00:20.471Z,101310.36
2018-09-08T13:02:48.695Z,101306.44
2018-09-08T13:05:16.914Z,101302.00
2018-09-08T13:07:45.217Z,101294.66
2018-09-08T13:10:13.417Z,101296.98
2018-09-08T13:12:41.667Z,101289.64
2018-09-08T13:15:09.877Z,101285.11
2018-09-08T13:17:38.132Z,101287.11
2018-09-08T13:20:06.431Z,101283.20
2018-09-08T13:22:34.678Z,101280.77
2018-09-08T13:25:02.897Z,101264.55
2018-09-08T13:27:31.138Z,101257.81
2018-09-08T13:29:59.394Z,101257.93
2018-09-08T13:32:27.667Z,101263.63
2018-09-08T13:34:55.930Z,101251.02
2018-09-08T13:37:24.159Z,101254.78
2018-09-08T13:39:52.431Z,101258.28
2018-09-08T13:42:20.767Z,101258.70
2018-09-08T13:44:48.991Z,101253.00
2018-09-08T13:47:17.237Z,101252.76
2018-09-08T13:49:45.591Z,101262.39
2018-09-08T13:52:13.833Z,101257.55
2018-09-08T13:54:42.095Z,101254.13
2018-09-08T13:57:10.365Z,101254.57
2018-09-08T13:59:38.561Z,101252.50
2018-09-08T14:02:06.810Z,101248.70
2018-09-08T14:04:35.094Z,101249.27
2018-09-08T14:07:03.334Z,101246.83
2018-09-08T14:09:31.574Z,101241.17
2018-09-08T14:11:59.799Z,101246.81
2018-09-08T14:14:28.022Z,101251.95
2018-09-08T14:16:56.245Z,101252.88
2018-09-08T14:19:24.503Z,101254.57
2018-09-08T14:21:52.738Z,101255.49
2018-09-08T14:24:20.951Z,101253.89
2018-09-08T14:26:49.179Z,101249.53
2018-09-08T14:29:17.405Z,101244.45
2018-09-08T14:31:45.632Z,101250.80
2018-09-08T14:34:13.862Z,101248.05
2018-09-08T14:36:42.159Z,101244.94
2018-09-08T14:39:10.807Z,101251.53
2018-09-08T14:41:39.028Z,101250.48
2018-09-08T14:44:07.458Z,101254.59
2018-09-08T14:46:35.691Z,101248.94
2018-09-08T14:49:03.923Z,101244.75
2018-09-08T14:51:32.137Z,101243.65
2018-09-08T14:54:00.399Z,101240.55
2018-09-08T14:56:28.609Z,101240.34
2018-09-08T14:58:56.832Z,101246.52
2018-09-08T15:01:25.082Z,101251.33
2018-09-08T15:03:53.306Z,101238.09
2018-09-08T15:06:21.547Z,101236.73
2018-09-08T15:08:49.787Z,101237.36
2018-09-08T15:11:18.005Z,101238.38
2018-09-08T15:13:46.210Z,101230.95
2018-09-08T15:16:14.426Z,101232.36
2018-09-08T15:18:42.673Z,101234.06
2018-09-08T15:21:15.842Z,101226.48
2018-09-08T15:23:44.090Z,101224.77
2018-09-08T15:26:12.319Z,101215.92
2018-09-08T15:28:40.536Z,101214.36
2018-09-08T15:31:08.750Z,101216.31
2018-09-08T15:33:36.975Z,101212.25
2018-09-08T15:36:05.191Z,101212.31
2018-09-08T15:38:33.424Z,101215.77
2018-09-08T15:41:01.638Z,101208.33
2018-09-08T15:43:30.125Z,101211.73
2018-09-08T15:45:58.438Z,101202.68
2018-09-08T15:48:26.601Z,101211.89
2018-09-08T15:50:54.855Z,101206.25
2018-09-08T15:53:23.069Z,101213.95
2018-09-08T15:55:51.318Z,101220.02
2018-09-08T15:58:19.603Z,101218.23
2018-09-08T16:00:47.794Z,101224.13
2018-09-08T16:03:15.991Z,101222.39
2018-09-08T16:05:44.223Z,101225.26
2018-09-08T16:08:12.455Z,101228.64
2018-09-08T16:10:40.670Z,101226.72
2018-09-08T16:13:10.557Z,101224.94
2018-09-08T16:15:38.778Z,101224.39
2018-09-08T16:18:07.074Z,101222.67
2018-09-08T16:20:35.275Z,101217.91
2018-09-08T16:23:03.505Z,101222.98
2018-09-08T16:25:31.722Z,101221.74
2018-09-08T16:27:59.943Z,101226.77
2018-09-08T16:30:28.158Z,101223.08
2018-09-08T16:32:56.482Z,101216.72
2018-09-08T16:35:24.703Z,101214.45
2018-09-08T16:37:52.947Z,101228.83
2018-09-08T16:40:21.257Z,101229.50
2018-09-08T16:42:49.440Z,101230.98
2018-09-08T16:45:17.705Z,101222.83
2018-09-08T16:47:45.947Z,101238.35
2018-09-08T16:50:14.185Z,101237.28
2018-09-08T16:52:42.527Z,101245.34
2018-09-08T16:55:10.668Z,101246.13
2018-09-08T16:57:38.869Z,101246.98
2018-09-08T17:00:07.215Z,101239.05
2018-09-08T17:02:35.512Z,101237.94
2018-09-08T17:05:03.837Z,101234.80
2018-09-08T17:07:32.002Z,101237.56
2018-09-08T17:10:00.230Z,101234.95
2018-09-08T17:12:28.433Z,101236.13
2018-09-08T17:14:56.658Z,101238.59
2018-09-08T17:17:24.886Z,101235.80
2018-09-08T17:19:55.203Z,101231.88
2018-09-08T17:22:23.427Z,101219.64
2018-09-08T17:24:51.654Z,101216.06
2018-09-08T17:27:19.875Z,101214.59
2018-09-08T17:29:48.103Z,101215.30
2018-09-08T17:32:16.465Z,101222.28
2018-09-08T17:34:44.663Z,101230.55
2018-09-08T17:37:12.889Z,101228.52
2018-09-08T17:39:41.137Z,101223.31
2018-09-08T17:42:11.665Z,101222.93
2018-09-08T17:44:39.890Z,101231.25
2018-09-08T17:47:08.137Z,101232.42
2018-09-08T17:49:36.853Z,101236.69
2018-09-08T17:52:05.165Z,101236.34
2018-09-08T17:54:33.345Z,101242.95
2018-09-08T17:57:01.586Z,101250.58
2018-09-08T17:59:29.810Z,101247.81
2018-09-08T18:01:58.034Z,101250.37
2018-09-08T18:04:26.271Z,101257.77
2018-09-08T18:06:54.525Z,101248.84
2018-09-08T18:09:22.754Z,101255.69
2018-09-08T18:11:51.089Z,101255.95
2018-09-08T18:14:19.267Z,101262.66
2018-09-08T18:16:47.541Z,101260.86
2018-09-08T18:19:15.758Z,101269.02
2018-09-08T18:21:44.035Z,101260.23
2018-09-08T18:24:12.259Z,101253.41
2018-09-08T18:26:40.823Z,101262.63
2018-09-08T18:29:09.035Z,101265.41
2018-09-08T18:31:37.270Z,101262.84
2018-09-08T18:34:05.502Z,101270.45
2018-09-08T18:36:34.825Z,101266.56
2018-09-08T18:39:03.077Z,101263.47
2018-09-08T18:41:31.399Z,101272.88
2018-09-08T18:43:59.546Z,101275.84
2018-09-08T18:46:27.782Z,101268.02
2018-09-08T18:48:56.013Z,101277.87
2018-09-08T18:51:24.258Z,101280.34
2018-09-08T18:53:52.542Z,101276.22
2018-09-08T18:56:20.766Z,101277.25
2018-09-08T18:58:48.991Z,101271.45
2018-09-08T19:01:17.227Z,101286.70
2018-09-08T19:03:45.450Z,101286.92
2018-09-08T19:06:13.742Z,101288.23
2018-09-08T19:08:42.066Z,101291.45
2018-09-08T19:11:12.123Z,101297.45
2018-09-08T19:13:40.309Z,101299.34
2018-09-08T19:16:08.537Z,101296.12
2018-09-08T19:18:36.772Z,101293.36
2018-09-08T19:21:05.149Z,101287.66
2018-09-08T19:23:33.387Z,101296.56
2018-09-08T19:26:01.622Z,101298.56
2018-09-08T19:28:29.935Z,101295.36
2018-09-08T19:30:58.159Z,101292.81
2018-09-08T19:33:26.502Z,101292.69
2018-09-08T19:35:55.419Z,101279.64
2018-09-08T19:38:26.839Z,101281.94
2018-09-08T19:40:55.067Z,101292.94
2018-09-08T19:43:25.983Z,101301.30
2018-09-08T19:45:54.241Z,101297.87
2018-09-08T19:48:22.473Z,101299.18
2018-09-08T19:50:50.710Z,101292.48
2018-09-08T19:53:24.289Z,101305.90
2018-09-08T19:55:52.555Z,101305.58
2018-09-08T19:58:26.014Z,101313.37
2018-09-08T20:00:54.238Z,101309.98
2018-09-08T20:03:22.507Z,101307.55
2018-09-08T20:05:50.743Z,101301.48
2018-09-08T20:08:19.380Z,101300.64
2018-09-08T20:10:48.480Z,101295.66
2018-09-08T20:13:16.738Z,101300.94
2018-09-08T20:15:44.986Z,101312.27
2018-09-08T20:18:13.226Z,101310.55
2018-09-08T20:20:41.447Z,101312.41
2018-09-08T20:23:09.685Z,101306.90
2018-09-08T20:25:37.901Z,101313.09
2018-09-08T20:28:06.155Z,101315.77
2018-09-08T20:30:34.381Z,101319.66
2018-09-08T20:33:02.598Z,101315.83
2018-09-08T20:35:30.843Z,101327.48
2018-09-08T20:37:59.060Z,101320.47
2018-09-08T20:40:27.329Z,101319.34
2018-09-08T20:42:59.331Z,101337.05
2018-09-08T20:45:27.590Z,101338.63
2018-09-08T20:47:55.826Z,101325.09
2018-09-08T20:50:24.071Z,101323.47
2018-09-08T20:52:52.336Z,101323.44
2018-09-08T20:55:20.598Z,101334.33
2018-09-08T20:57:48.896Z,101333.09
2018-09-08T21:00:19.265Z,101321.87
2018-09-08T21:02:47.547Z,101327.98
2018-09-08T21:05:15.776Z,101319.05
2018-09-08T21:07:44.101Z,101311.13
2018-09-08T21:10:12.355Z,101312.02
2018-09-08T21:12:40.677Z,101315.90
2018-09-08T21:15:08.974Z,101320.16
2018-09-08T21:17:39.310Z,101327.90
2018-09-08T21:20:07.602Z,101326.07
2018-09-08T21:22:35.885Z,101323.38
2018-09-08T21:25:04.246Z,101327.00
2018-09-08T21:27:32.506Z,101322.23
2018-09-08T21:30:00.755Z,101317.47
2018-09-08T21:32:29.003Z,101328.42
2018-09-08T21:34:57.233Z,101325.72
2018-09-08T21:37:25.658Z,101327.16
2018-09-08T21:39:53.970Z,101324.09
2018-09-08T21:42:22.195Z,101322.23
2018-09-08T21:44:50.455Z,101319.02
2018-09-08T21:47:18.770Z,101314.92
2018-09-08T21:49:47.031Z,101317.98
2018-09-08T21:52:15.347Z,101324.98
2018-09-08T21:54:43.601Z,101333.28
2018-09-08T21:57:11.847Z,101326.09
2018-09-08T21:59:40.075Z,101322.00
2018-09-08T22:02:08.314Z,101317.09
2018-09-08T22:04:36.528Z,101327.27
2018-09-08T22:07:04.773Z,101330.74
2018-09-08T22:09:33.029Z,101333.44
2018-09-08T22:12:01.225Z,101332.14
2018-09-08T22:14:29.470Z,101328.20
2018-09-08T22:16:57.686Z,101325.64
2018-09-08T22:19:25.929Z,101324.95
2018-09-08T22:21:54.151Z,101313.35
2018-09-08T22:24:22.426Z,101311.99
2018-09-08T22:26:50.662Z,101307.86
2018-09-08T22:29:18.925Z,101307.12
2018-09-08T22:31:47.180Z,101306.92
2018-09-08T22:34:15.410Z,101308.67
2018-09-08T22:36:43.643Z,101315.16
2018-09-08T22:39:11.886Z,101321.73
2018-09-08T22:41:40.128Z,101326.48
2018-09-08T22:44:08.390Z,101326.75
2018-09-08T22:46:36.608Z,101332.31
2018-09-08T22:49:04.903Z,101334.27
2018-09-08T22:51:33.325Z,101342.00
2018-09-08T22:54:01.567Z,101339.58
2018-09-08T22:56:29.773Z,101338.56
2018-09-08T22:58:58.042Z,101343.92
2018-09-08T23:01:26.262Z,101332.64
2018-09-08T23:03:54.520Z,101336.33
2018-09-08T23:06:22.746Z,101341.19
2018-09-08T23:08:50.970Z,101339.46
2018-09-08T23:11:19.209Z,101343.94
2018-09-08T23:13:47.429Z,101354.84
2018-09-08T23:16:16.405Z,101358.08
2018-09-08T23:18:44.631Z,101354.84
2018-09-08T23:21:12.845Z,101352.73
2018-09-08T23:23:41.090Z,101347.81
2018-09-08T23:26:09.343Z,101350.02
2018-09-08T23:28:37.699Z,101355.14
2018-09-08T23:31:05.979Z,101354.81
2018-09-08T23:33:34.291Z,101348.16
2018-09-08T23:36:03.658Z,101351.26
2018-09-08T23:38:31.871Z,101351.95
2018-09-08T23:41:00.103Z,101354.82
2018-09-08T23:43:28.358Z,101353.02
2018-09-08T23:45:56.614Z,101358.38
2018-09-08T23:48:25.134Z,101363.90
2018-09-08T23:50:53.479Z,101370.61
2018-09-08T23:53:21.698Z,101371.05
2018-09-08T23:55:50.044Z,101367.44
2018-09-08T23:58:18.254Z,101364.93
